This is the latest recevied weather packets stored in our database for station/object EA4URC-13. If no packets are shown the sender has not sent any weather packets the latest 10 day(s).
| Time | Temp. | Humidity | Pressure | Rain* | Wind** | Luminosity | Snow |
|---|---|---|---|---|---|---|---|
| 1777359462 | 12.78° C | 24% | 1005.5 hPa | - | - | - | - |
| 1777358549 | 11.67° C | 25% | 1005.8 hPa | - | - | - | - |
| 1777357649 | 11.11° C | 24% | 1005.8 hPa | - | - | - | - |
| 1777356742 | 10.56° C | 24% | 1005.9 hPa | - | - | - | - |
| 1777355842 | 10° C | 24% | 1006.1 hPa | - | - | - | - |
| 1777354132 | 10.56° C | 23% | 1005.5 hPa | - | - | - | - |
| 1777353232 | 10° C | 24% | 1005.8 hPa | - | - | - | - |
| 1777352332 | 10.56° C | 25% | 1005.7 hPa | - | - | - | - |
| 1777351432 | 10° C | 24% | 1005.8 hPa | - | - | - | - |
| 1777350532 | 10.56° C | 24% | 1005.7 hPa | - | - | - | - |
| 1777349632 | 10.56° C | 24% | 1005.6 hPa | - | - | - | - |
| 1777348732 | 10° C | 25% | 1006.1 hPa | - | - | - | - |
| 1777347832 | 10.56° C | 25% | 1006 hPa | - | - | - | - |
| 1777346932 | 10.56° C | 26% | 1006.2 hPa | - | - | - | - |
| 1777346032 | 10.56° C | 25% | 1006.1 hPa | - | - | - | - |
| 1777345132 | 11.11° C | 25% | 1005.9 hPa | - | - | - | - |
| 1777343770 | 11.11° C | 26% | 1006.5 hPa | - | - | - | - |
| 1777342858 | 11.11° C | 26% | 1006.7 hPa | - | - | - | - |
| 1777341958 | 11.11° C | 26% | 1006.8 hPa | - | - | - | - |
| 1777341038 | 11.11° C | 27% | 1006.7 hPa | - | - | - | - |
| 1777340138 | 10.56° C | 28% | 1007.3 hPa | - | - | - | - |
| 1777339228 | 11.11° C | 28% | 1007.4 hPa | - | - | - | - |
| 1777338325 | 11.11° C | 28% | 1007.5 hPa | - | - | - | - |
| 1777337419 | 11.11° C | 28% | 1007.7 hPa | - | - | - | - |
| 1777336519 | 10.56° C | 28% | 1008 hPa | - | - | - | - |
* Rain since midnight (hover to see other rain measurements)
** Current wind speed in m/s (hover to see current wind gust speed)